createdAt,value
2019-04-21T00:01:57.829Z,11.80
2019-04-21T00:04:40.544Z,11.90
2019-04-21T00:07:31.604Z,12.00
2019-04-21T00:12:20.665Z,12.10
2019-04-21T00:14:43.629Z,12.00
2019-04-21T00:17:06.020Z,11.80
2019-04-21T00:19:44.668Z,11.70
2019-04-21T00:22:29.343Z,11.70
2019-04-21T00:24:56.834Z,11.60
2019-04-21T00:27:28.388Z,11.50
2019-04-21T00:30:08.748Z,11.60
2019-04-21T00:32:29.214Z,11.60
2019-04-21T00:34:53.425Z,11.70
2019-04-21T00:37:29.286Z,11.60
2019-04-21T00:40:14.453Z,11.50
2019-04-21T00:42:37.407Z,11.50
2019-04-21T00:45:03.515Z,11.40
2019-04-21T00:47:34.140Z,11.40
2019-04-21T00:50:05.066Z,11.40
2019-04-21T00:52:51.262Z,11.30
2019-04-21T00:57:54.230Z,11.10
2019-04-21T01:00:17.725Z,11.00
2019-04-21T01:02:49.842Z,10.90
2019-04-21T01:05:37.052Z,10.90
2019-04-21T01:07:48.263Z,10.80
2019-04-21T01:10:09.573Z,10.80
2019-04-21T01:16:10.176Z,10.70
2019-04-21T01:18:41.029Z,10.60
2019-04-21T01:20:45.825Z,10.70
2019-04-21T01:23:14.708Z,10.90
2019-04-21T01:25:57.165Z,11.10
2019-04-21T01:28:29.326Z,11.10
2019-04-21T01:31:07.459Z,11.00
2019-04-21T01:33:41.187Z,11.00
2019-04-21T01:36:05.449Z,11.10
2019-04-21T01:38:40.324Z,11.10
2019-04-21T01:41:08.378Z,11.10
2019-04-21T01:43:57.476Z,11.20
2019-04-21T01:46:25.763Z,11.30
2019-04-21T01:48:52.531Z,11.40
2019-04-21T01:51:28.146Z,11.30
2019-04-21T01:54:09.353Z,11.30
2019-04-21T01:56:51.282Z,11.30
2019-04-21T01:59:08.943Z,11.30
2019-04-21T02:01:52.458Z,11.30
2019-04-21T02:04:29.441Z,11.20
2019-04-21T02:06:59.407Z,11.30
2019-04-21T02:09:23.288Z,11.40
2019-04-21T02:12:00.083Z,11.40
2019-04-21T02:14:31.150Z,11.50
2019-04-21T02:16:59.323Z,11.50
2019-04-21T02:19:23.411Z,11.40
2019-04-21T02:21:51.909Z,11.30
2019-04-21T02:24:34.924Z,11.20
2019-04-21T02:26:59.222Z,11.10
2019-04-21T02:29:34.770Z,10.90
2019-04-21T02:32:08.954Z,10.80
2019-04-21T02:37:28.112Z,11.10
2019-04-21T02:39:48.938Z,11.20
2019-04-21T02:44:43.004Z,11.30
2019-04-21T02:47:03.704Z,11.40
2019-04-21T02:54:53.911Z,11.50
2019-04-21T02:57:18.628Z,11.50
2019-04-21T03:00:00.445Z,11.40
2019-04-21T03:05:01.866Z,11.50
2019-04-21T03:10:02.257Z,11.50
2019-04-21T03:12:32.075Z,11.50
2019-04-21T03:22:39.379Z,11.40
2019-04-21T03:27:48.774Z,11.30
2019-04-21T03:30:14.259Z,11.20
2019-04-21T03:33:15.452Z,11.30
2019-04-21T03:40:07.933Z,11.20
2019-04-21T03:42:42.664Z,11.10
2019-04-21T03:45:18.705Z,11.00
2019-04-21T03:47:34.563Z,11.00
2019-04-21T04:00:45.078Z,10.70
2019-04-21T04:03:23.705Z,10.60
2019-04-21T04:06:01.986Z,10.60
2019-04-21T04:08:31.927Z,10.60
2019-04-21T04:11:03.055Z,10.60
2019-04-21T04:13:34.115Z,10.60
2019-04-21T04:15:56.222Z,10.60
2019-04-21T04:18:39.259Z,10.70
2019-04-21T04:20:51.666Z,10.60
2019-04-21T04:23:31.548Z,10.60
2019-04-21T04:25:59.174Z,10.60
2019-04-21T04:28:33.678Z,10.70
2019-04-21T04:31:30.140Z,10.70
2019-04-21T04:33:37.319Z,10.80
2019-04-21T04:38:41.500Z,10.60
2019-04-21T04:41:06.343Z,10.60
2019-04-21T04:46:00.491Z,10.60
2019-04-21T04:53:40.478Z,10.60
2019-04-21T04:56:07.707Z,10.60
2019-04-21T05:01:16.929Z,10.60
2019-04-21T05:03:44.420Z,10.60
2019-04-21T05:14:03.061Z,10.60
2019-04-21T05:16:41.105Z,10.60
2019-04-21T05:19:08.444Z,10.60
2019-04-21T05:23:47.008Z,10.60
2019-04-21T05:26:09.809Z,10.60
2019-04-21T05:28:40.916Z,10.80
2019-04-21T05:31:25.644Z,10.70
2019-04-21T05:34:03.093Z,10.70
2019-04-21T05:36:34.332Z,10.80
2019-04-21T05:39:10.820Z,10.80
2019-04-21T05:41:31.397Z,10.90
2019-04-21T05:44:13.238Z,10.90
2019-04-21T05:46:53.486Z,11.10
2019-04-21T05:49:20.573Z,11.10
2019-04-21T05:51:59.763Z,11.30
2019-04-21T05:54:53.071Z,11.40
2019-04-21T05:57:08.643Z,11.60
2019-04-21T06:02:17.427Z,12.00
2019-04-21T06:05:01.941Z,12.10
2019-04-21T06:07:13.289Z,12.30
2019-04-21T06:09:49.925Z,12.60
2019-04-21T06:12:08.927Z,12.60
2019-04-21T06:14:43.951Z,12.80
2019-04-21T06:17:19.157Z,12.90
2019-04-21T06:22:11.986Z,13.40
2019-04-21T06:24:54.260Z,13.50
2019-04-21T06:27:18.917Z,13.60
2019-04-21T06:29:44.839Z,13.90
2019-04-21T06:32:30.404Z,13.90
2019-04-21T06:34:59.113Z,14.20
2019-04-21T06:40:03.206Z,14.60
2019-04-21T06:42:13.606Z,14.60
2019-04-21T06:44:53.763Z,14.70
2019-04-21T06:47:26.036Z,14.90
2019-04-21T06:49:45.163Z,15.10
2019-04-21T06:52:42.384Z,15.10
2019-04-21T06:57:23.182Z,15.40
2019-04-21T06:59:45.215Z,15.70
2019-04-21T07:02:36.480Z,15.90
2019-04-21T07:07:17.183Z,16.00
2019-04-21T07:09:57.261Z,16.30
2019-04-21T07:12:18.749Z,16.40
2019-04-21T07:14:55.985Z,16.40
2019-04-21T07:17:24.623Z,16.60
2019-04-21T07:19:55.854Z,16.70
2019-04-21T07:22:24.738Z,16.80
2019-04-21T07:24:58.676Z,16.80
2019-04-21T07:27:33.946Z,16.70
2019-04-21T07:29:58.192Z,16.80
2019-04-21T07:32:26.787Z,16.90
2019-04-21T07:34:57.662Z,17.20
2019-04-21T07:37:23.996Z,17.40
2019-04-21T07:39:54.528Z,17.60
2019-04-21T07:42:17.484Z,17.70
2019-04-21T07:44:49.534Z,17.80
2019-04-21T07:47:33.905Z,17.90
2019-04-21T07:50:07.462Z,18.10
2019-04-21T07:52:47.028Z,18.30
2019-04-21T07:55:19.979Z,18.50
2019-04-21T07:57:37.683Z,18.60
2019-04-21T08:02:40.427Z,18.40
2019-04-21T08:05:23.851Z,18.20
2019-04-21T08:10:13.883Z,18.40
2019-04-21T08:12:37.943Z,18.70
2019-04-21T08:17:41.413Z,19.40
2019-04-21T08:20:12.332Z,19.80
2019-04-21T08:22:46.796Z,20.00
2019-04-21T08:25:15.126Z,20.50
2019-04-21T08:27:50.638Z,21.10
2019-04-21T08:30:11.795Z,21.80
2019-04-21T08:32:51.484Z,22.30
2019-04-21T08:37:43.308Z,23.10
2019-04-21T08:40:19.333Z,23.80
2019-04-21T08:42:46.692Z,24.20
2019-04-21T08:45:21.783Z,24.10
2019-04-21T08:47:49.680Z,24.10
2019-04-21T08:50:15.163Z,25.00
2019-04-21T08:52:49.206Z,26.00
2019-04-21T08:55:25.185Z,26.60
2019-04-21T08:58:18.541Z,27.20
2019-04-21T09:00:56.237Z,27.70
2019-04-21T09:03:45.732Z,27.30
2019-04-21T09:06:13.729Z,27.30
2019-04-21T09:08:42.280Z,27.60
2019-04-21T09:11:11.501Z,27.60
2019-04-21T09:13:43.052Z,27.80
2019-04-21T09:16:09.746Z,27.10
2019-04-21T09:18:39.535Z,27.60
2019-04-21T09:21:14.820Z,27.80
2019-04-21T09:23:43.731Z,28.20
2019-04-21T09:26:13.831Z,28.00
2019-04-21T09:28:39.476Z,27.90
2019-04-21T09:30:58.456Z,28.40
2019-04-21T09:33:34.513Z,29.30
2019-04-21T09:36:01.017Z,29.10
2019-04-21T09:38:32.869Z,28.30
2019-04-21T09:40:56.508Z,28.60
2019-04-21T09:43:34.111Z,28.90
2019-04-21T09:45:57.167Z,29.60
2019-04-21T09:48:26.666Z,30.60
2019-04-21T09:50:57.379Z,30.90
2019-04-21T09:53:33.214Z,30.60
2019-04-21T09:56:01.057Z,31.20
2019-04-21T09:58:34.798Z,31.10
2019-04-21T10:01:11.039Z,30.80
2019-04-21T10:03:39.691Z,30.20
2019-04-21T10:05:58.721Z,30.60
2019-04-21T10:08:27.574Z,31.40
2019-04-21T10:10:56.985Z,30.90
2019-04-21T10:13:25.879Z,31.20
2019-04-21T10:15:58.957Z,31.50
2019-04-21T10:18:27.677Z,31.40
2019-04-21T10:20:57.012Z,31.70
2019-04-21T10:23:25.880Z,30.80
2019-04-21T10:25:54.708Z,31.00
2019-04-21T10:28:23.392Z,31.20
2019-04-21T10:30:52.911Z,30.90
2019-04-21T10:33:22.010Z,31.10
2019-04-21T10:35:50.908Z,31.00
2019-04-21T10:38:27.975Z,30.90
2019-04-21T10:40:49.857Z,31.00
2019-04-21T10:43:22.078Z,31.10
2019-04-21T10:45:48.907Z,31.40
2019-04-21T10:48:18.823Z,30.70
2019-04-21T10:50:47.655Z,30.80
2019-04-21T10:53:18.838Z,30.30
2019-04-21T10:55:58.953Z,30.90
2019-04-21T10:58:22.539Z,31.00
2019-04-21T11:00:52.808Z,31.10
2019-04-21T11:03:26.852Z,31.20
2019-04-21T11:06:03.323Z,31.90
2019-04-21T11:08:38.041Z,32.60
2019-04-21T11:11:03.772Z,33.10
2019-04-21T11:13:32.708Z,33.40
2019-04-21T11:16:01.749Z,32.50
2019-04-21T11:18:31.690Z,32.40
2019-04-21T11:21:00.848Z,32.90
2019-04-21T11:23:29.508Z,33.30
2019-04-21T11:25:58.301Z,33.10
2019-04-21T11:28:27.205Z,33.30
2019-04-21T11:30:57.194Z,32.00
2019-04-21T11:33:27.149Z,32.20
2019-04-21T11:35:55.715Z,32.10
2019-04-21T11:38:55.812Z,32.00
2019-04-21T11:41:09.642Z,32.40
2019-04-21T11:43:39.159Z,32.30
2019-04-21T11:46:08.595Z,31.40
2019-04-21T11:48:37.139Z,31.90
2019-04-21T11:51:06.742Z,32.00
2019-04-21T11:53:36.899Z,32.70
2019-04-21T11:56:06.946Z,32.40
2019-04-21T11:58:36.068Z,33.00
2019-04-21T12:01:05.676Z,32.50
2019-04-21T12:03:35.764Z,33.00
2019-04-21T12:06:05.765Z,33.00
2019-04-21T12:08:40.404Z,32.80
2019-04-21T12:11:05.367Z,33.40
2019-04-21T12:13:34.223Z,33.80
2019-04-21T12:16:03.208Z,33.30
2019-04-21T12:18:32.466Z,33.90
2019-04-21T12:21:03.133Z,34.00
2019-04-21T12:23:32.425Z,33.70
2019-04-21T12:26:01.385Z,33.50
2019-04-21T12:28:30.325Z,33.60
2019-04-21T12:31:00.062Z,34.20
2019-04-21T12:33:38.051Z,34.60
2019-04-21T12:36:06.860Z,34.50
2019-04-21T12:38:46.579Z,34.70
2019-04-21T12:41:06.603Z,35.30
2019-04-21T12:43:36.951Z,35.20
2019-04-21T12:46:05.875Z,34.60
2019-04-21T12:48:34.289Z,34.20
2019-04-21T12:51:03.863Z,34.90
2019-04-21T12:53:33.963Z,35.70
2019-04-21T12:56:02.596Z,35.70
2019-04-21T12:58:31.457Z,35.70
2019-04-21T13:01:00.913Z,34.90
2019-04-21T13:03:30.369Z,35.80
2019-04-21T13:05:59.265Z,36.70
2019-04-21T13:08:27.745Z,38.10
2019-04-21T13:10:58.109Z,36.50
2019-04-21T13:13:28.161Z,35.80
2019-04-21T13:15:57.699Z,36.00
2019-04-21T13:18:27.019Z,36.80
2019-04-21T13:20:56.114Z,37.40
2019-04-21T13:23:24.961Z,37.00
2019-04-21T13:25:54.124Z,36.60
2019-04-21T13:28:23.097Z,37.50
2019-04-21T13:30:51.795Z,36.40
2019-04-21T13:33:20.986Z,35.40
2019-04-21T13:35:50.932Z,35.80
2019-04-21T13:38:29.352Z,36.10
2019-04-21T13:41:11.877Z,36.40
2019-04-21T13:43:25.203Z,36.00
2019-04-21T13:45:54.083Z,36.10
2019-04-21T13:48:22.582Z,35.90
2019-04-21T13:50:51.339Z,36.30
2019-04-21T13:53:20.897Z,37.00
2019-04-21T13:55:50.860Z,37.90
2019-04-21T13:58:20.092Z,37.30
2019-04-21T14:00:50.556Z,37.50
2019-04-21T14:03:21.753Z,36.80
2019-04-21T14:05:50.516Z,37.20
2019-04-21T14:08:19.040Z,36.30
2019-04-21T14:10:49.111Z,37.30
2019-04-21T14:13:18.459Z,37.30
2019-04-21T14:15:48.838Z,37.80
2019-04-21T14:18:18.575Z,38.00
2019-04-21T14:20:47.403Z,36.90
2019-04-21T14:23:25.556Z,36.30
2019-04-21T14:25:46.292Z,36.10
2019-04-21T14:28:15.635Z,36.40
2019-04-21T14:30:44.307Z,36.40
2019-04-21T14:33:14.114Z,35.70
2019-04-21T14:35:43.104Z,36.70
2019-04-21T14:38:11.646Z,37.50
2019-04-21T14:40:41.735Z,37.20
2019-04-21T14:43:12.009Z,37.30
2019-04-21T14:45:45.441Z,37.80
2019-04-21T14:48:32.837Z,36.90
2019-04-21T14:51:06.661Z,36.90
2019-04-21T14:53:56.327Z,37.50
2019-04-21T14:56:27.007Z,37.60
2019-04-21T14:58:57.656Z,37.60
2019-04-21T15:01:26.227Z,38.20
2019-04-21T15:03:55.516Z,37.40
2019-04-21T15:06:25.427Z,37.90
2019-04-21T15:08:55.499Z,38.10
2019-04-21T15:11:24.496Z,38.60
2019-04-21T15:13:53.654Z,38.40
2019-04-21T15:16:22.905Z,38.80
2019-04-21T15:18:52.694Z,38.00
2019-04-21T15:21:21.733Z,37.60
2019-04-21T15:23:50.769Z,37.60
2019-04-21T15:26:20.099Z,37.40
2019-04-21T15:28:48.945Z,36.80
2019-04-21T15:31:23.876Z,36.20
2019-04-21T15:33:47.849Z,36.20
2019-04-21T15:36:16.734Z,36.40
2019-04-21T15:38:45.793Z,36.60
2019-04-21T15:41:16.377Z,36.50
2019-04-21T15:43:44.912Z,37.20
2019-04-21T15:46:13.492Z,37.10
2019-04-21T15:48:42.528Z,37.30
2019-04-21T15:51:11.215Z,36.70
2019-04-21T15:53:41.787Z,36.20
2019-04-21T15:56:12.995Z,35.60
2019-04-21T15:58:46.532Z,35.00
2019-04-21T16:01:25.671Z,35.10
2019-04-21T16:03:56.892Z,35.30
2019-04-21T16:06:25.683Z,35.60
2019-04-21T16:08:57.105Z,35.60
2019-04-21T16:11:24.371Z,35.70
2019-04-21T16:13:52.783Z,35.80
2019-04-21T16:16:23.599Z,35.90
2019-04-21T16:18:52.164Z,36.10
2019-04-21T16:21:22.012Z,35.80
2019-04-21T16:23:51.141Z,35.90
2019-04-21T16:26:20.368Z,36.30
2019-04-21T16:28:49.257Z,35.80
2019-04-21T16:31:18.469Z,35.50
2019-04-21T16:33:47.174Z,35.30
2019-04-21T16:36:17.106Z,35.00
2019-04-21T16:38:47.135Z,33.80
2019-04-21T16:41:16.139Z,32.80
2019-04-21T16:43:45.048Z,32.10
2019-04-21T16:46:13.837Z,31.50
2019-04-21T16:48:44.050Z,30.40
2019-04-21T16:51:13.213Z,29.70
2019-04-21T16:53:43.984Z,29.10
2019-04-21T16:56:29.447Z,28.50
2019-04-21T16:59:14.889Z,28.00
2019-04-21T17:01:44.667Z,27.60
2019-04-21T17:04:13.203Z,27.30
2019-04-21T17:06:42.889Z,27.30
2019-04-21T17:09:12.670Z,27.40
2019-04-21T17:11:43.627Z,27.60
2019-04-21T17:14:27.244Z,27.60
2019-04-21T17:17:03.710Z,28.00
2019-04-21T17:19:21.314Z,28.10
2019-04-21T17:21:43.692Z,28.00
2019-04-21T17:24:12.710Z,27.70
2019-04-21T17:26:44.119Z,27.00
2019-04-21T17:29:12.365Z,26.20
2019-04-21T17:31:41.380Z,25.30
2019-04-21T17:34:16.171Z,24.40
2019-04-21T17:36:41.175Z,24.30
2019-04-21T17:39:11.102Z,23.80
2019-04-21T17:41:54.150Z,23.40
2019-04-21T17:44:10.766Z,23.10
2019-04-21T17:46:46.555Z,22.80
2019-04-21T17:49:10.833Z,22.50
2019-04-21T17:52:01.126Z,22.20
2019-04-21T17:54:35.817Z,21.90
2019-04-21T17:57:21.680Z,21.50
2019-04-21T17:59:56.872Z,21.20
2019-04-21T18:02:24.782Z,21.00
2019-04-21T18:04:57.707Z,20.80
2019-04-21T18:07:26.146Z,20.50
2019-04-21T18:10:00.865Z,20.30
2019-04-21T18:12:41.483Z,20.10
2019-04-21T18:15:16.766Z,19.70
2019-04-21T18:17:28.802Z,19.60
2019-04-21T18:19:57.463Z,19.40
2019-04-21T18:22:41.502Z,19.10
2019-04-21T18:25:25.222Z,19.00
2019-04-21T18:27:42.696Z,18.80
2019-04-21T18:30:38.157Z,18.70
2019-04-21T18:33:17.403Z,18.50
2019-04-21T18:35:57.904Z,18.30
2019-04-21T18:39:13.993Z,18.20
2019-04-21T18:41:23.654Z,18.00
2019-04-21T18:44:30.329Z,17.90
2019-04-21T18:47:01.292Z,17.80
2019-04-21T18:49:13.130Z,17.60
2019-04-21T18:51:57.298Z,17.50
2019-04-21T18:54:37.138Z,17.30
2019-04-21T18:57:03.245Z,17.20
2019-04-21T18:59:31.391Z,17.00
2019-04-21T19:01:59.954Z,17.00
2019-04-21T19:04:28.722Z,16.90
2019-04-21T19:07:06.606Z,16.80
2019-04-21T19:10:07.242Z,16.50
2019-04-21T19:12:17.794Z,16.60
2019-04-21T19:14:40.070Z,16.50
2019-04-21T19:22:13.572Z,16.20
2019-04-21T19:24:48.597Z,16.10
2019-04-21T19:27:21.203Z,16.00
2019-04-21T19:29:54.086Z,15.80
2019-04-21T19:32:19.787Z,15.80
2019-04-21T19:34:32.380Z,15.70
2019-04-21T19:37:06.083Z,15.60
2019-04-21T19:39:42.796Z,15.60
2019-04-21T19:42:08.633Z,15.50
2019-04-21T19:44:47.090Z,15.40
2019-04-21T19:47:25.894Z,15.30
2019-04-21T19:49:49.512Z,15.20
2019-04-21T19:52:06.591Z,15.10
2019-04-21T19:54:36.259Z,15.10
2019-04-21T19:57:00.833Z,15.00
2019-04-21T19:59:36.651Z,14.80
2019-04-21T20:02:00.281Z,14.80
2019-04-21T20:04:38.499Z,14.70
2019-04-21T20:07:10.428Z,14.70
2019-04-21T20:09:47.890Z,14.70
2019-04-21T20:12:18.478Z,14.70
2019-04-21T20:14:57.611Z,14.60
2019-04-21T20:17:13.696Z,14.50
2019-04-21T20:19:32.156Z,14.50
2019-04-21T20:22:00.963Z,14.40
2019-04-21T20:24:33.989Z,14.40
2019-04-21T20:27:07.928Z,14.30
2019-04-21T20:29:49.896Z,14.20
2019-04-21T20:32:28.018Z,14.20
2019-04-21T20:34:56.210Z,14.10
2019-04-21T20:37:20.727Z,14.10
2019-04-21T20:39:44.001Z,14.00
2019-04-21T20:42:19.430Z,14.00
2019-04-21T20:44:57.405Z,14.00
2019-04-21T20:47:18.622Z,13.90
2019-04-21T20:49:45.017Z,13.90
2019-04-21T20:52:24.466Z,13.90
2019-04-21T20:54:48.189Z,13.80
2019-04-21T20:57:24.355Z,13.80
2019-04-21T20:59:53.036Z,13.70
2019-04-21T21:02:20.117Z,13.60
2019-04-21T21:04:45.785Z,13.60
2019-04-21T21:07:36.359Z,13.50
2019-04-21T21:10:01.660Z,13.40
2019-04-21T21:12:37.114Z,13.40
2019-04-21T21:14:52.963Z,13.30
2019-04-21T21:17:40.797Z,13.20
2019-04-21T21:20:00.787Z,13.20
2019-04-21T21:22:23.202Z,13.10
2019-04-21T21:24:57.066Z,13.10
2019-04-21T21:27:25.490Z,13.00
2019-04-21T21:29:56.149Z,12.90
2019-04-21T21:32:27.075Z,12.80
2019-04-21T21:34:56.938Z,12.80
2019-04-21T21:37:34.381Z,12.70
2019-04-21T21:40:06.079Z,12.70
2019-04-21T21:42:13.293Z,12.70
2019-04-21T21:44:49.541Z,12.70
2019-04-21T21:47:25.279Z,12.60
2019-04-21T21:49:57.814Z,12.50
2019-04-21T21:52:29.696Z,12.60
2019-04-21T21:54:43.587Z,12.50
2019-04-21T21:57:12.400Z,12.40
2019-04-21T21:59:42.188Z,12.40
2019-04-21T22:02:17.072Z,12.40
2019-04-21T22:04:52.889Z,12.40
2019-04-21T22:07:15.736Z,12.30
2019-04-21T22:09:42.012Z,12.30
2019-04-21T22:12:12.375Z,12.20
2019-04-21T22:14:45.512Z,12.20
2019-04-21T22:17:33.223Z,12.10
2019-04-21T22:20:03.586Z,12.10
2019-04-21T22:22:27.673Z,12.10
2019-04-21T22:24:54.468Z,12.10
2019-04-21T22:27:14.857Z,12.00
2019-04-21T22:29:48.199Z,11.90
2019-04-21T22:32:19.198Z,11.90
2019-04-21T22:34:52.387Z,11.80
2019-04-21T22:37:30.262Z,11.70
2019-04-21T22:39:58.464Z,11.60
2019-04-21T22:42:21.540Z,11.70
2019-04-21T22:44:46.200Z,11.60
2019-04-21T22:47:22.407Z,11.60
2019-04-21T22:49:48.685Z,11.50
2019-04-21T22:52:20.953Z,11.50
2019-04-21T22:54:49.312Z,11.50
2019-04-21T22:57:21.997Z,11.40
2019-04-21T22:59:54.877Z,11.40
2019-04-21T23:02:24.738Z,11.40
2019-04-21T23:04:54.254Z,11.30
2019-04-21T23:07:22.479Z,11.30
2019-04-21T23:09:49.894Z,11.30
2019-04-21T23:12:24.520Z,11.20
2019-04-21T23:14:57.416Z,11.20
2019-04-21T23:17:38.919Z,11.20
2019-04-21T23:20:10.500Z,11.20
2019-04-21T23:22:48.852Z,11.20
2019-04-21T23:25:07.503Z,11.20
2019-04-21T23:27:37.798Z,11.40
2019-04-21T23:30:20.173Z,11.40
2019-04-21T23:32:34.081Z,11.30
2019-04-21T23:34:55.638Z,11.30
2019-04-21T23:37:25.718Z,11.30
2019-04-21T23:40:03.017Z,11.20
2019-04-21T23:42:32.795Z,11.10
2019-04-21T23:44:58.061Z,10.90
2019-04-21T23:47:34.590Z,10.80
2019-04-21T23:50:02.547Z,10.80
2019-04-21T23:52:25.637Z,10.80
2019-04-21T23:54:55.543Z,10.90
2019-04-21T23:57:30.444Z,11.00
2019-04-21T23:59:57.398Z,11.00
